createdAt,value
2023-01-25T00:04:45.978Z,101590.09
2023-01-25T00:09:48.201Z,101593.50
2023-01-25T00:14:50.318Z,101601.09
2023-01-25T00:19:52.450Z,101590.53
2023-01-25T00:24:54.599Z,101565.41
2023-01-25T00:29:56.747Z,101628.16
2023-01-25T00:34:58.844Z,101621.50
2023-01-25T00:40:00.987Z,101626.69
2023-01-25T00:45:03.219Z,101592.47
2023-01-25T00:50:08.067Z,101576.44
2023-01-25T00:55:10.524Z,101619.91
2023-01-25T01:00:13.221Z,101606.41
2023-01-25T01:05:15.610Z,101597.00
2023-01-25T01:10:17.920Z,101620.03
2023-01-25T01:15:20.367Z,101608.31
2023-01-25T01:20:23.549Z,101614.69
2023-01-25T01:25:25.700Z,101570.75
2023-01-25T01:30:27.765Z,101603.34
2023-01-25T01:35:31.132Z,101562.50
2023-01-25T01:40:33.227Z,101589.88
2023-01-25T01:45:44.614Z,101599.63
2023-01-25T01:50:51.076Z,101591.16
2023-01-25T01:55:56.378Z,101590.94
2023-01-25T02:00:59.098Z,101587.34
2023-01-25T02:06:09.357Z,101574.94
2023-01-25T02:11:13.348Z,101526.25
2023-01-25T02:16:19.833Z,101572.88
2023-01-25T02:21:23.854Z,101549.28
2023-01-25T02:26:26.397Z,101570.34
2023-01-25T02:31:28.742Z,101531.19
2023-01-25T02:36:32.973Z,101593.16
2023-01-25T02:41:36.734Z,101582.47
2023-01-25T02:46:40.788Z,101586.16
2023-01-25T02:51:45.468Z,101567.53
2023-01-25T02:56:47.588Z,101582.16
2023-01-25T03:01:50.425Z,101582.63
2023-01-25T03:06:52.521Z,101563.81
2023-01-25T03:11:54.688Z,101547.00
2023-01-25T03:16:56.839Z,101536.72
2023-01-25T03:21:59.366Z,101583.72
2023-01-25T03:27:18.624Z,101557.09
2023-01-25T03:32:20.842Z,101602.88
2023-01-25T03:37:22.984Z,101608.69
2023-01-25T03:42:25.475Z,101604.50
2023-01-25T03:47:27.622Z,101604.47
2023-01-25T03:52:41.044Z,101606.81
2023-01-25T03:57:43.312Z,101605.44
2023-01-25T04:02:45.471Z,101592.22
2023-01-25T04:07:47.596Z,101612.31
2023-01-25T04:12:49.727Z,101616.88
2023-01-25T04:17:52.040Z,101588.72
2023-01-25T04:22:54.148Z,101562.81
2023-01-25T04:27:56.226Z,101606.38
2023-01-25T04:33:04.571Z,101622.09
2023-01-25T04:38:07.074Z,101543.78
2023-01-25T04:43:10.071Z,101638.38
2023-01-25T04:48:13.714Z,101543.47
2023-01-25T04:53:15.960Z,101597.19
2023-01-25T04:58:18.083Z,101607.59
2023-01-25T05:03:20.226Z,101599.69
2023-01-25T05:08:22.353Z,101616.19
2023-01-25T05:13:24.517Z,101628.09
2023-01-25T05:18:31.100Z,101617.00
2023-01-25T05:23:41.120Z,101562.84
2023-01-25T05:28:43.187Z,101574.56
2023-01-25T05:33:45.286Z,101639.19
2023-01-25T05:38:47.433Z,101610.75
2023-01-25T05:43:49.891Z,101619.16
2023-01-25T05:48:51.956Z,101592.72
2023-01-25T05:53:57.110Z,101600.25
2023-01-25T05:59:00.923Z,101634.44
2023-01-25T06:04:03.072Z,101614.59
2023-01-25T06:09:05.241Z,101641.41
2023-01-25T06:14:07.480Z,101590.25
2023-01-25T06:19:09.674Z,101609.59
2023-01-25T06:24:11.872Z,101631.03
2023-01-25T06:29:13.942Z,101604.97
2023-01-25T06:34:17.311Z,101651.69
2023-01-25T06:39:19.444Z,101655.03
2023-01-25T06:44:21.608Z,101631.19
2023-01-25T06:49:23.687Z,101650.22
2023-01-25T06:54:25.804Z,101622.53
2023-01-25T06:59:28.013Z,101637.28
2023-01-25T07:04:30.125Z,101637.28
2023-01-25T07:09:32.181Z,101642.44
2023-01-25T07:14:34.440Z,101653.47
2023-01-25T07:19:36.568Z,101628.94
2023-01-25T07:24:38.920Z,101618.78
2023-01-25T07:29:41.623Z,101620.16
2023-01-25T07:34:43.916Z,101627.56
2023-01-25T07:39:49.945Z,101621.63
2023-01-25T07:44:52.261Z,101645.41
2023-01-25T07:49:55.447Z,101621.97
2023-01-25T07:54:57.542Z,101644.91
2023-01-25T07:59:59.897Z,101657.94
2023-01-25T08:05:02.207Z,101640.00
2023-01-25T08:10:04.992Z,101578.88
2023-01-25T08:15:08.907Z,101649.06
2023-01-25T08:20:12.990Z,101628.69
2023-01-25T08:25:15.135Z,101644.31
2023-01-25T08:30:17.739Z,101634.47
2023-01-25T08:35:19.845Z,101634.75
2023-01-25T08:40:22.012Z,101633.28
2023-01-25T08:45:30.958Z,101630.75
2023-01-25T08:50:33.268Z,101662.75
2023-01-25T08:55:36.677Z,101560.38
2023-01-25T09:00:42.677Z,101598.75
2023-01-25T09:05:45.089Z,101579.66
2023-01-25T09:10:47.337Z,101545.88
2023-01-25T09:15:49.488Z,101579.56
2023-01-25T09:20:51.964Z,101571.31
2023-01-25T09:25:59.061Z,101618.38
2023-01-25T09:31:20.538Z,101602.22
2023-01-25T09:36:24.331Z,101638.81
2023-01-25T09:41:52.222Z,101623.84
2023-01-25T09:46:58.704Z,101604.19
2023-01-25T09:52:23.463Z,101621.47
2023-01-25T09:57:32.360Z,101604.97
2023-01-25T10:02:46.594Z,101595.63
2023-01-25T10:07:54.577Z,101591.63
2023-01-25T10:12:56.763Z,101551.66
2023-01-25T10:18:26.780Z,101573.50
2023-01-25T10:23:41.779Z,101575.16
2023-01-25T10:29:14.189Z,101572.50
2023-01-25T10:34:22.954Z,101564.13
2023-01-25T10:39:25.192Z,101489.69
2023-01-25T10:44:29.214Z,101489.72
2023-01-25T10:49:40.941Z,101533.50
2023-01-25T10:54:43.455Z,101492.03
2023-01-25T10:59:53.214Z,101522.66
2023-01-25T11:04:55.447Z,101508.56
2023-01-25T11:09:57.542Z,101495.06
2023-01-25T11:15:23.955Z,101517.25
2023-01-25T11:20:26.099Z,101484.66
2023-01-25T11:25:33.584Z,101501.88
2023-01-25T11:30:35.717Z,101457.34
2023-01-25T11:35:53.046Z,101457.69
2023-01-25T11:41:10.221Z,101480.19
2023-01-25T11:46:42.715Z,101476.28
2023-01-25T11:51:56.065Z,101476.69
2023-01-25T11:57:24.290Z,101461.25
2023-01-25T12:02:51.130Z,101455.72
2023-01-25T12:08:16.860Z,101445.28
2023-01-25T12:13:28.232Z,101460.41
2023-01-25T12:18:59.069Z,101403.69
2023-01-25T12:24:10.153Z,101441.28
2023-01-25T12:29:30.284Z,101423.69
2023-01-25T12:34:42.828Z,101417.28
2023-01-25T12:39:59.512Z,101423.00
2023-01-25T12:45:12.256Z,101418.47
2023-01-25T12:50:39.076Z,101425.72
2023-01-25T12:55:41.605Z,101419.81
2023-01-25T13:00:49.640Z,101421.13
2023-01-25T13:06:22.437Z,101411.72
2023-01-25T13:11:40.276Z,101381.69
2023-01-25T13:16:44.867Z,101391.75
2023-01-25T13:21:49.751Z,101406.22
2023-01-25T13:26:54.643Z,101411.75
2023-01-25T13:31:59.822Z,101374.31
2023-01-25T13:37:23.387Z,101391.25
2023-01-25T13:42:26.873Z,101383.53
2023-01-25T13:47:38.621Z,101345.63
2023-01-25T13:52:56.095Z,101354.69
2023-01-25T13:58:32.923Z,101386.06
2023-01-25T14:03:38.457Z,101362.72
2023-01-25T14:08:41.049Z,101358.69
2023-01-25T14:13:59.640Z,101382.72
2023-01-25T14:19:24.680Z,101366.78
2023-01-25T14:24:26.835Z,101367.78
2023-01-25T14:29:33.321Z,101357.84
2023-01-25T14:34:35.659Z,101336.38
2023-01-25T14:39:37.923Z,101358.56
2023-01-25T14:44:40.611Z,101349.47
2023-01-25T14:49:42.907Z,101326.31
2023-01-25T14:54:54.653Z,101346.63
2023-01-25T14:59:57.784Z,101332.88
2023-01-25T15:05:14.635Z,101362.56
2023-01-25T15:10:21.508Z,101377.31
2023-01-25T15:15:25.310Z,101367.06
2023-01-25T15:20:40.698Z,101360.22
2023-01-25T15:25:56.462Z,101363.59
2023-01-25T15:30:59.936Z,101323.47
2023-01-25T15:36:02.277Z,101227.50
2023-01-25T15:41:04.582Z,101271.47
2023-01-25T15:46:14.627Z,101286.88
2023-01-25T15:51:16.684Z,101352.50
2023-01-25T15:56:29.385Z,101352.34
2023-01-25T16:01:31.879Z,101344.44
2023-01-25T16:06:44.616Z,101339.25
2023-01-25T16:11:57.803Z,101332.19
2023-01-25T16:17:06.014Z,101365.75
2023-01-25T16:22:08.198Z,101275.97
2023-01-25T16:27:25.763Z,101326.00
2023-01-25T16:32:28.043Z,101320.94
2023-01-25T16:37:30.088Z,101302.63
2023-01-25T16:42:32.402Z,101312.56
2023-01-25T16:47:34.634Z,101250.75
2023-01-25T16:52:36.834Z,101242.22
2023-01-25T16:57:40.358Z,101291.88
2023-01-25T17:02:58.317Z,101245.38
2023-01-25T17:08:01.773Z,101260.84
2023-01-25T17:13:04.028Z,101273.44
2023-01-25T17:18:06.341Z,101299.13
2023-01-25T17:23:08.629Z,101281.69
2023-01-25T17:28:10.962Z,101316.59
2023-01-25T17:33:14.653Z,101228.63
2023-01-25T17:38:16.945Z,101305.16
2023-01-25T17:43:19.513Z,101294.38
2023-01-25T17:48:21.609Z,101261.69
2023-01-25T17:53:23.849Z,101302.47
2023-01-25T17:58:25.929Z,101275.22
2023-01-25T18:03:28.049Z,101298.25
2023-01-25T18:08:30.215Z,101291.31
2023-01-25T18:13:32.554Z,101287.13
2023-01-25T18:18:34.754Z,101259.91
2023-01-25T18:23:38.676Z,101292.88
2023-01-25T18:28:40.926Z,101268.03
2023-01-25T18:33:44.186Z,101307.28
2023-01-25T18:38:46.887Z,101299.41
2023-01-25T18:43:50.249Z,101295.22
2023-01-25T18:48:52.437Z,101293.56
2023-01-25T18:53:54.889Z,101257.63
2023-01-25T18:58:58.698Z,101270.56
2023-01-25T19:04:00.891Z,101280.81
2023-01-25T19:09:03.068Z,101256.81
2023-01-25T19:14:05.371Z,101278.09
2023-01-25T19:19:07.441Z,101257.00
2023-01-25T19:24:13.955Z,101250.94
2023-01-25T19:29:16.436Z,101189.06
2023-01-25T19:34:18.614Z,101212.22
2023-01-25T19:39:20.728Z,101223.09
2023-01-25T19:44:23.184Z,101247.94
2023-01-25T19:49:25.295Z,101205.34
2023-01-25T19:54:27.777Z,101229.63
2023-01-25T19:59:29.960Z,101211.41
2023-01-25T20:04:32.402Z,101220.78
2023-01-25T20:09:34.540Z,101167.81
2023-01-25T20:14:38.336Z,101185.91
2023-01-25T20:19:40.553Z,101200.34
2023-01-25T20:24:42.700Z,101166.13
2023-01-25T20:29:44.839Z,101172.50
2023-01-25T20:34:46.978Z,101181.56
2023-01-25T20:39:49.119Z,101187.59
2023-01-25T20:44:51.189Z,101154.91
2023-01-25T20:49:53.363Z,101170.13
2023-01-25T20:54:55.761Z,101154.03
2023-01-25T20:59:57.958Z,101147.00
2023-01-25T21:05:00.024Z,101163.78
2023-01-25T21:10:02.225Z,101128.03
2023-01-25T21:15:04.559Z,101145.00
2023-01-25T21:20:08.156Z,101141.13
2023-01-25T21:25:13.017Z,101124.88
2023-01-25T21:30:16.198Z,101154.72
2023-01-25T21:35:18.314Z,101149.84
2023-01-25T21:40:20.788Z,101127.91
2023-01-25T21:45:41.568Z,101121.38
2023-01-25T21:51:01.995Z,101122.22
2023-01-25T21:56:04.323Z,101088.03
2023-01-25T22:01:10.398Z,101094.06
2023-01-25T22:06:12.657Z,101082.81
2023-01-25T22:11:15.038Z,101092.38
2023-01-25T22:16:17.234Z,101079.31
2023-01-25T22:21:21.998Z,101109.16
2023-01-25T22:26:27.289Z,101095.44
2023-01-25T22:31:31.780Z,101091.22
2023-01-25T22:36:34.821Z,101090.38
2023-01-25T22:41:38.330Z,101063.56
2023-01-25T22:46:40.552Z,101063.75
2023-01-25T22:51:42.708Z,101045.16
2023-01-25T22:56:44.839Z,101037.63
2023-01-25T23:01:47.112Z,101057.56
2023-01-25T23:06:49.706Z,101045.97
2023-01-25T23:11:52.044Z,101034.22
2023-01-25T23:17:14.355Z,101024.69
2023-01-25T23:22:16.494Z,101026.91
2023-01-25T23:27:18.762Z,100994.88
2023-01-25T23:32:20.903Z,100993.03
2023-01-25T23:37:23.592Z,101001.44
2023-01-25T23:42:25.647Z,100970.59
2023-01-25T23:47:29.537Z,100977.81
2023-01-25T23:52:33.326Z,100943.16
2023-01-25T23:57:35.395Z,100985.19
